sensor_id;sensor_type;location;lat;lon;timestamp;pressure;altitude;pressure_sealevel;temperature;humidity
46129;BME280;31860;45.186;5.790;2022-11-15T00:01:52;99092.16;;;14.20;100.00
46129;BME280;31860;45.186;5.790;2022-11-15T00:04:17;99085.19;;;14.19;100.00
46129;BME280;31860;45.186;5.790;2022-11-15T00:06:43;99077.31;;;14.19;100.00
46129;BME280;31860;45.186;5.790;2022-11-15T00:09:08;99079.94;;;14.19;100.00
46129;BME280;31860;45.186;5.790;2022-11-15T00:11:34;99080.81;;;14.18;100.00
46129;BME280;31860;45.186;5.790;2022-11-15T00:13:59;99072.94;;;14.17;100.00
46129;BME280;31860;45.186;5.790;2022-11-15T00:16:28;99070.31;;;14.17;100.00
46129;BME280;31860;45.186;5.790;2022-11-15T00:18:53;99072.94;;;14.17;100.00
46129;BME280;31860;45.186;5.790;2022-11-15T00:21:23;99072.94;;;14.17;100.00
46129;BME280;31860;45.186;5.790;2022-11-15T00:23:49;99074.72;;;14.15;100.00
46129;BME280;31860;45.186;5.790;2022-11-15T00:26:15;99077.38;;;14.15;100.00
46129;BME280;31860;45.186;5.790;2022-11-15T00:28:41;99065.09;;;14.15;100.00
46129;BME280;31860;45.186;5.790;2022-11-15T00:31:10;99059.84;;;14.15;100.00
46129;BME280;31860;45.186;5.790;2022-11-15T00:33:36;99073.03;;;14.14;100.00
46129;BME280;31860;45.186;5.790;2022-11-15T00:36:07;99067.75;;;14.12;100.00
46129;BME280;31860;45.186;5.790;2022-11-15T00:38:35;99066.03;;;14.11;100.00
46129;BME280;31860;45.186;5.790;2022-11-15T00:41:02;99061.66;;;14.12;100.00
46129;BME280;31860;45.186;5.790;2022-11-15T00:43:28;99053.78;;;14.10;100.00
46129;BME280;31860;45.186;5.790;2022-11-15T00:45:53;99061.66;;;14.10;100.00
46129;BME280;31860;45.186;5.790;2022-11-15T00:48:19;99055.56;;;14.10;100.00
46129;BME280;31860;45.186;5.790;2022-11-15T00:50:45;99051.19;;;14.09;100.00
46129;BME280;31860;45.186;5.790;2022-11-15T00:53:10;99053.81;;;14.09;100.00
46129;BME280;31860;45.186;5.790;2022-11-15T00:55:35;99055.56;;;14.08;100.00
46129;BME280;31860;45.186;5.790;2022-11-15T00:58:01;99060.81;;;14.08;100.00
46129;BME280;31860;45.186;5.790;2022-11-15T01:00:26;99056.47;;;14.07;100.00
46129;BME280;31860;45.186;5.790;2022-11-15T01:02:52;99063.47;;;14.07;100.00
46129;BME280;31860;45.186;5.790;2022-11-15T01:05:17;99053.84;;;14.07;100.00
46129;BME280;31860;45.186;5.790;2022-11-15T01:07:42;99053.88;;;14.06;100.00
46129;BME280;31860;45.186;5.790;2022-11-15T01:10:08;99061.75;;;14.06;100.00
46129;BME280;31860;45.186;5.790;2022-11-15T01:12:33;99062.63;;;14.05;100.00
46129;BME280;31860;45.186;5.790;2022-11-15T01:14:59;99055.69;;;14.02;100.00
46129;BME280;31860;45.186;5.790;2022-11-15T01:17:24;99059.16;;;14.03;100.00
46129;BME280;31860;45.186;5.790;2022-11-15T01:19:50;99067.91;;;14.03;100.00
46129;BME280;31860;45.186;5.790;2022-11-15T01:22:15;99067.03;;;14.04;100.00
46129;BME280;31860;45.186;5.790;2022-11-15T01:24:41;99069.66;;;14.03;100.00
46129;BME280;31860;45.186;5.790;2022-11-15T01:27:06;99068.81;;;14.02;100.00
46129;BME280;31860;45.186;5.790;2022-11-15T01:29:32;99071.44;;;14.01;100.00
46129;BME280;31860;45.186;5.790;2022-11-15T01:31:57;99068.84;;;13.99;100.00
46129;BME280;31860;45.186;5.790;2022-11-15T01:34:23;99062.75;;;13.97;100.00
46129;BME280;31860;45.186;5.790;2022-11-15T01:36:48;99052.25;;;13.99;100.00
46129;BME280;31860;45.186;5.790;2022-11-15T01:39:13;99060.13;;;13.97;100.00
46129;BME280;31860;45.186;5.790;2022-11-15T01:41:40;99056.66;;;13.97;100.00
46129;BME280;31860;45.186;5.790;2022-11-15T01:46:56;99048.78;;;13.97;100.00
46129;BME280;31860;45.186;5.790;2022-11-15T01:49:23;99043.53;;;13.97;100.00
46129;BME280;31860;45.186;5.790;2022-11-15T01:51:49;99043.53;;;13.97;100.00
46129;BME280;31860;45.186;5.790;2022-11-15T01:54:19;99029.50;;;13.98;100.00
46129;BME280;31860;45.186;5.790;2022-11-15T01:56:49;99036.50;;;13.99;100.00
46129;BME280;31860;45.186;5.790;2022-11-15T01:59:18;99031.25;;;13.99;100.00
46129;BME280;31860;45.186;5.790;2022-11-15T02:01:44;99028.63;;;13.97;100.00
46129;BME280;31860;45.186;5.790;2022-11-15T02:04:13;99018.13;;;13.97;100.00
46129;BME280;31860;45.186;5.790;2022-11-15T02:06:40;99020.78;;;13.96;100.00
46129;BME280;31860;45.186;5.790;2022-11-15T02:09:06;99014.63;;;13.95;100.00
46129;BME280;31860;45.186;5.790;2022-11-15T02:11:32;99007.63;;;13.96;100.00
46129;BME280;31860;45.186;5.790;2022-11-15T02:13:59;99014.63;;;13.95;100.00
46129;BME280;31860;45.186;5.790;2022-11-15T02:22:22;98998.91;;;13.94;100.00
46129;BME280;31860;45.186;5.790;2022-11-15T02:30:38;98985.84;;;13.91;100.00
46129;BME280;31860;45.186;5.790;2022-11-15T02:39:27;98979.75;;;13.89;100.00
46129;BME280;31860;45.186;5.790;2022-11-15T02:41:58;98976.25;;;13.88;100.00
46129;BME280;31860;45.186;5.790;2022-11-15T02:44:33;98977.13;;;13.89;100.00
46129;BME280;31860;45.186;5.790;2022-11-15T02:47:04;98970.13;;;13.89;100.00
46129;BME280;31860;45.186;5.790;2022-11-15T02:49:39;98960.47;;;13.90;100.00
46129;BME280;31860;45.186;5.790;2022-11-15T02:52:06;98966.59;;;13.90;100.00
46129;BME280;31860;45.186;5.790;2022-11-15T02:54:32;98971.81;;;13.92;100.00
46129;BME280;31860;45.186;5.790;2022-11-15T02:57:02;98963.97;;;13.90;100.00
46129;BME280;31860;45.186;5.790;2022-11-15T03:04:52;98956.97;;;13.91;100.00
46129;BME280;31860;45.186;5.790;2022-11-15T03:07:32;98958.72;;;13.90;100.00
46129;BME280;31860;45.186;5.790;2022-11-15T03:10:08;98953.50;;;13.89;100.00
46129;BME280;31860;45.186;5.790;2022-11-15T03:13:27;98962.25;;;13.89;100.00
46129;BME280;31860;45.186;5.790;2022-11-15T03:18:37;98954.38;;;13.88;100.00
46129;BME280;31860;45.186;5.790;2022-11-15T03:21:08;98958.78;;;13.87;100.00
46129;BME280;31860;45.186;5.790;2022-11-15T03:23:35;98957.91;;;13.87;100.00
46129;BME280;31860;45.186;5.790;2022-11-15T03:26:01;98955.28;;;13.87;100.00
46129;BME280;31860;45.186;5.790;2022-11-15T03:28:47;98961.41;;;13.87;100.00
46129;BME280;31860;45.186;5.790;2022-11-15T03:31:16;98961.41;;;13.87;100.00
46129;BME280;31860;45.186;5.790;2022-11-15T03:34:04;98975.38;;;13.88;100.00
46129;BME280;31860;45.186;5.790;2022-11-15T03:36:33;98974.53;;;13.87;100.00
46129;BME280;31860;45.186;5.790;2022-11-15T03:39:02;98977.13;;;13.89;100.00
46129;BME280;31860;45.186;5.790;2022-11-15T03:45:07;98959.63;;;13.89;100.00
46129;BME280;31860;45.186;5.790;2022-11-15T03:48:25;98961.38;;;13.89;100.00
46129;BME280;31860;45.186;5.790;2022-11-15T03:50:26;98947.38;;;13.88;100.00
46129;BME280;31860;45.186;5.790;2022-11-15T03:52:53;98946.50;;;13.89;100.00
46129;BME280;31860;45.186;5.790;2022-11-15T03:55:20;98946.47;;;13.91;100.00
46129;BME280;31860;45.186;5.790;2022-11-15T03:57:50;98936.84;;;13.90;100.00
46129;BME280;31860;45.186;5.790;2022-11-15T04:00:16;98931.59;;;13.90;100.00
46129;BME280;31860;45.186;5.790;2022-11-15T04:02:42;98921.09;;;13.90;100.00
46129;BME280;31860;45.186;5.790;2022-11-15T04:05:07;98917.59;;;13.91;100.00
46129;BME280;31860;45.186;5.790;2022-11-15T04:07:33;98921.97;;;13.90;100.00
46129;BME280;31860;45.186;5.790;2022-11-15T04:09:58;98925.50;;;13.89;100.00
46129;BME280;31860;45.186;5.790;2022-11-15T04:12:27;98921.13;;;13.88;100.00
46129;BME280;31860;45.186;5.790;2022-11-15T04:15:07;98918.50;;;13.88;100.00
46129;BME280;31860;45.186;5.790;2022-11-15T04:17:56;98910.66;;;13.87;100.00
46129;BME280;31860;45.186;5.790;2022-11-15T04:20:24;98908.91;;;13.86;100.00
46129;BME280;31860;45.186;5.790;2022-11-15T04:25:56;98896.69;;;13.85;100.00
46129;BME280;31860;45.186;5.790;2022-11-15T04:28:22;98894.00;;;13.88;100.00
46129;BME280;31860;45.186;5.790;2022-11-15T04:30:48;98884.41;;;13.87;100.00
46129;BME280;31860;45.186;5.790;2022-11-15T04:33:14;98880.88;;;13.88;100.00
46129;BME280;31860;45.186;5.790;2022-11-15T04:35:39;98881.75;;;13.88;100.00
46129;BME280;31860;45.186;5.790;2022-11-15T04:38:07;98890.53;;;13.87;100.00
46129;BME280;31860;45.186;5.790;2022-11-15T04:40:33;98883.53;;;13.86;100.00
46129;BME280;31860;45.186;5.790;2022-11-15T04:42:59;98883.53;;;13.86;100.00
46129;BME280;31860;45.186;5.790;2022-11-15T04:45:24;98882.66;;;13.86;100.00
46129;BME280;31860;45.186;5.790;2022-11-15T04:47:50;98879.16;;;13.87;100.00
46129;BME280;31860;45.186;5.790;2022-11-15T04:50:16;98879.13;;;13.88;100.00
46129;BME280;31860;45.186;5.790;2022-11-15T04:52:50;98872.16;;;13.87;100.00
46129;BME280;31860;45.186;5.790;2022-11-15T04:55:16;98863.38;;;13.88;100.00
46129;BME280;31860;45.186;5.790;2022-11-15T04:57:42;98861.59;;;13.89;100.00
46129;BME280;31860;45.186;5.790;2022-11-15T05:00:11;98857.22;;;13.88;100.00
46129;BME280;31860;45.186;5.790;2022-11-15T05:02:37;98862.50;;;13.88;100.00
46129;BME280;31860;45.186;5.790;2022-11-15T05:05:21;98864.28;;;13.87;100.00
46129;BME280;31860;45.186;5.790;2022-11-15T05:07:46;98853.78;;;13.86;100.00
46129;BME280;31860;45.186;5.790;2022-11-15T05:10:11;98858.16;;;13.87;100.00
46129;BME280;31860;45.186;5.790;2022-11-15T05:12:37;98844.16;;;13.86;100.00
46129;BME280;31860;45.186;5.790;2022-11-15T05:15:03;98837.19;;;13.85;100.00
46129;BME280;31860;45.186;5.790;2022-11-15T05:17:28;98829.25;;;13.87;100.00
46129;BME280;31860;45.186;5.790;2022-11-15T05:19:54;98828.34;;;13.89;100.00
46129;BME280;31860;45.186;5.790;2022-11-15T05:22:19;98831.94;;;13.85;100.00
46129;BME280;31860;45.186;5.790;2022-11-15T05:24:45;98829.34;;;13.84;100.00
46129;BME280;31860;45.186;5.790;2022-11-15T05:27:10;98838.97;;;13.83;100.00
46129;BME280;31860;45.186;5.790;2022-11-15T05:29:36;98834.59;;;13.84;100.00
46129;BME280;31860;45.186;5.790;2022-11-15T05:32:03;98825.88;;;13.82;100.00
46129;BME280;31860;45.186;5.790;2022-11-15T05:34:30;98828.50;;;13.82;100.00
46129;BME280;31860;45.186;5.790;2022-11-15T05:36:56;98815.38;;;13.80;100.00
46129;BME280;31860;45.186;5.790;2022-11-15T05:39:21;98816.28;;;13.79;100.00
46129;BME280;31860;45.186;5.790;2022-11-15T05:41:50;98814.53;;;13.78;100.00
46129;BME280;31860;45.186;5.790;2022-11-15T05:44:22;98820.66;;;13.79;100.00
46129;BME280;31860;45.186;5.790;2022-11-15T05:46:49;98817.16;;;13.80;100.00
46129;BME280;31860;45.186;5.790;2022-11-15T05:49:17;98822.41;;;13.80;100.00
46129;BME280;31860;45.186;5.790;2022-11-15T05:51:45;98821.53;;;13.79;100.00
46129;BME280;31860;45.186;5.790;2022-11-15T05:54:13;98814.53;;;13.78;100.00
46129;BME280;31860;45.186;5.790;2022-11-15T05:56:39;98814.56;;;13.77;100.00
46129;BME280;31860;45.186;5.790;2022-11-15T05:59:05;98818.97;;;13.76;100.00
46129;BME280;31860;45.186;5.790;2022-11-15T06:01:31;98804.09;;;13.75;100.00
46129;BME280;31860;45.186;5.790;2022-11-15T06:03:56;98805.84;;;13.75;100.00
46129;BME280;31860;45.186;5.790;2022-11-15T06:06:21;98811.16;;;13.73;100.00
46129;BME280;31860;45.186;5.790;2022-11-15T06:08:47;98811.13;;;13.75;100.00
46129;BME280;31860;45.186;5.790;2022-11-15T06:11:13;98812.84;;;13.76;100.00
46129;BME280;31860;45.186;5.790;2022-11-15T06:13:39;98812.78;;;13.79;100.00
46129;BME280;31860;45.186;5.790;2022-11-15T06:16:05;98812.75;;;13.80;100.00
46129;BME280;31860;45.186;5.790;2022-11-15T06:18:34;98823.25;;;13.82;100.00
46129;BME280;31860;45.186;5.790;2022-11-15T06:21:00;98821.47;;;13.82;100.00
46129;BME280;31860;45.186;5.790;2022-11-15T06:23:26;98817.09;;;13.83;100.00
46129;BME280;31860;45.186;5.790;2022-11-15T06:25:51;98813.59;;;13.82;100.00
46129;BME280;31860;45.186;5.790;2022-11-15T06:28:17;98809.22;;;13.83;100.00
46129;BME280;31860;45.186;5.790;2022-11-15T06:30:42;98803.09;;;13.82;100.00
46129;BME280;31860;45.186;5.790;2022-11-15T06:33:07;98817.09;;;13.83;100.00
46129;BME280;31860;45.186;5.790;2022-11-15T06:35:34;98821.47;;;13.84;100.00
46129;BME280;31860;45.186;5.790;2022-11-15T06:38:05;98815.38;;;13.82;100.00
46129;BME280;31860;45.186;5.790;2022-11-15T06:40:36;98825.88;;;13.82;100.00
46129;BME280;31860;45.186;5.790;2022-11-15T06:43:03;98825.00;;;13.81;100.00
46129;BME280;31860;45.186;5.790;2022-11-15T06:45:29;98823.25;;;13.82;100.00
46129;BME280;31860;45.186;5.790;2022-11-15T06:47:55;98825.00;;;13.81;100.00
46129;BME280;31860;45.186;5.790;2022-11-15T06:50:20;98822.41;;;13.80;100.00
46129;BME280;31860;45.186;5.790;2022-11-15T06:52:45;98825.03;;;13.80;100.00
46129;BME280;31860;45.186;5.790;2022-11-15T06:55:11;98819.78;;;13.80;100.00
46129;BME280;31860;45.186;5.790;2022-11-15T06:57:37;98825.91;;;13.79;100.00
46129;BME280;31860;45.186;5.790;2022-11-15T07:00:04;98825.09;;;13.75;100.00
46129;BME280;31860;45.186;5.790;2022-11-15T07:02:30;98823.34;;;13.76;100.00
46129;BME280;31860;45.186;5.790;2022-11-15T07:04:56;98818.09;;;13.76;100.00
46129;BME280;31860;45.186;5.790;2022-11-15T07:07:21;98824.22;;;13.75;100.00
46129;BME280;31860;45.186;5.790;2022-11-15T07:09:46;98829.47;;;13.75;100.00
46129;BME280;31860;45.186;5.790;2022-11-15T07:12:12;98813.72;;;13.76;100.00
46129;BME280;31860;45.186;5.790;2022-11-15T07:14:38;98813.72;;;13.76;100.00
46129;BME280;31860;45.186;5.790;2022-11-15T07:17:04;98817.22;;;13.75;100.00
46129;BME280;31860;45.186;5.790;2022-11-15T07:19:30;98812.84;;;13.76;100.00
46129;BME280;31860;45.186;5.790;2022-11-15T07:21:55;98808.47;;;13.76;100.00
46129;BME280;31860;45.186;5.790;2022-11-15T07:24:21;98810.16;;;13.79;100.00
46129;BME280;31860;45.186;5.790;2022-11-15T07:26:46;98809.25;;;13.81;100.00
46129;BME280;31860;45.186;5.790;2022-11-15T07:29:12;98811.00;;;13.81;100.00
46129;BME280;31860;45.186;5.790;2022-11-15T07:31:37;98806.59;;;13.83;100.00
46129;BME280;31860;45.186;5.790;2022-11-15T07:34:03;98810.09;;;13.83;100.00
46129;BME280;31860;45.186;5.790;2022-11-15T07:36:29;98810.06;;;13.85;100.00
46129;BME280;31860;45.186;5.790;2022-11-15T07:38:54;98804.72;;;13.88;100.00
46129;BME280;31860;45.186;5.790;2022-11-15T07:41:19;98803.88;;;13.87;100.00
46129;BME280;31860;45.186;5.790;2022-11-15T07:43:45;98810.81;;;13.90;100.00
46129;BME280;31860;45.186;5.790;2022-11-15T07:46:10;98815.22;;;13.89;100.00
46129;BME280;31860;45.186;5.790;2022-11-15T07:48:37;98807.31;;;13.91;100.00
46129;BME280;31860;45.186;5.790;2022-11-15T07:51:04;98798.53;;;13.92;100.00
46129;BME280;31860;45.186;5.790;2022-11-15T07:53:29;98803.75;;;13.95;100.00
46129;BME280;31860;45.186;5.790;2022-11-15T07:55:55;98800.19;;;13.96;100.00
46129;BME280;31860;45.186;5.790;2022-11-15T07:58:20;98802.81;;;13.96;100.00
46129;BME280;31860;45.186;5.790;2022-11-15T08:00:46;98801.94;;;13.97;100.00
46129;BME280;31860;45.186;5.790;2022-11-15T08:03:14;98801.88;;;14.00;100.00
46129;BME280;31860;45.186;5.790;2022-11-15T08:05:40;98802.75;;;14.00;100.00
46129;BME280;31860;45.186;5.790;2022-11-15T08:08:07;98802.75;;;14.00;100.00
46129;BME280;31860;45.186;5.790;2022-11-15T08:10:33;98800.09;;;14.02;100.00
46129;BME280;31860;45.186;5.790;2022-11-15T08:13:01;98793.91;;;14.03;100.00
46129;BME280;31860;45.186;5.790;2022-11-15T08:15:27;98788.66;;;14.04;100.00
46129;BME280;31860;45.186;5.790;2022-11-15T08:17:54;98793.88;;;14.06;100.00
46129;BME280;31860;45.186;5.790;2022-11-15T08:20:20;98786.00;;;14.06;100.00
46129;BME280;31860;45.186;5.790;2022-11-15T08:22:45;98786.88;;;14.06;100.00
46129;BME280;31860;45.186;5.790;2022-11-15T08:25:11;98787.69;;;14.08;100.00
46129;BME280;31860;45.186;5.790;2022-11-15T08:27:37;98781.53;;;14.09;100.00
46129;BME280;31860;45.186;5.790;2022-11-15T08:30:03;98782.38;;;14.11;100.00
46129;BME280;31860;45.186;5.790;2022-11-15T08:32:30;98782.34;;;14.13;100.00
46129;BME280;31860;45.186;5.790;2022-11-15T08:34:55;98777.06;;;14.14;100.00
46129;BME280;31860;45.186;5.790;2022-11-15T08:37:21;98781.38;;;14.17;100.00
46129;BME280;31860;45.186;5.790;2022-11-15T08:39:46;98777.84;;;14.18;100.00
46129;BME280;31860;45.186;5.790;2022-11-15T08:42:11;98771.72;;;14.19;100.00
46129;BME280;31860;45.186;5.790;2022-11-15T08:44:38;98775.22;;;14.19;100.00
46129;BME280;31860;45.186;5.790;2022-11-15T08:47:04;98766.41;;;14.20;100.00
46129;BME280;31860;45.186;5.790;2022-11-15T08:49:30;98775.13;;;14.22;100.00
46129;BME280;31860;45.186;5.790;2022-11-15T08:51:55;98764.59;;;14.24;100.00
46129;BME280;31860;45.186;5.790;2022-11-15T08:54:20;98755.81;;;14.25;100.00
46129;BME280;31860;45.186;5.790;2022-11-15T08:56:46;98761.03;;;14.26;100.00
46129;BME280;31860;45.186;5.790;2022-11-15T08:59:11;98757.53;;;14.29;100.00
46129;BME280;31860;45.186;5.790;2022-11-15T09:01:37;98753.09;;;14.30;100.00
46129;BME280;31860;45.186;5.790;2022-11-15T09:04:02;98748.72;;;14.30;100.00
46129;BME280;31860;45.186;5.790;2022-11-15T09:06:29;98748.66;;;14.33;100.00
46129;BME280;31860;45.186;5.790;2022-11-15T09:08:54;98754.72;;;14.35;100.00
46129;BME280;31860;45.186;5.790;2022-11-15T09:11:20;98745.97;;;14.36;100.00
46129;BME280;31860;45.186;5.790;2022-11-15T09:13:47;98743.31;;;14.38;100.00
46129;BME280;31860;45.186;5.790;2022-11-15T09:16:12;98744.13;;;14.40;100.00
46129;BME280;31860;45.186;5.790;2022-11-15T09:18:40;98734.47;;;14.42;100.00
46129;BME280;31860;45.186;5.790;2022-11-15T09:21:06;98738.81;;;14.43;100.00
46129;BME280;31860;45.186;5.790;2022-11-15T09:23:32;98736.16;;;14.44;100.00
46129;BME280;31860;45.186;5.790;2022-11-15T09:26:01;98733.50;;;14.46;100.00
46129;BME280;31860;45.186;5.790;2022-11-15T09:28:28;98739.59;;;14.46;100.00
46129;BME280;31860;45.186;5.790;2022-11-15T09:30:58;98740.41;;;14.48;100.00
46129;BME280;31860;45.186;5.790;2022-11-15T09:33:24;98734.28;;;14.49;100.00
46129;BME280;31860;45.186;5.790;2022-11-15T09:35:50;98729.91;;;14.50;100.00
46129;BME280;31860;45.186;5.790;2022-11-15T09:38:15;98723.78;;;14.49;100.00
46129;BME280;31860;45.186;5.790;2022-11-15T09:40:41;98718.47;;;14.51;100.00
46129;BME280;31860;45.186;5.790;2022-11-15T09:48:54;98713.19;;;14.52;100.00
46129;BME280;31860;45.186;5.790;2022-11-15T09:51:35;98714.91;;;14.53;100.00
46129;BME280;31860;45.186;5.790;2022-11-15T09:54:11;98721.88;;;14.54;100.00
46129;BME280;31860;45.186;5.790;2022-11-15T09:56:41;98701.75;;;14.55;100.00
46129;BME280;31860;45.186;5.790;2022-11-15T09:59:27;98709.53;;;14.58;100.00
46129;BME280;31860;45.186;5.790;2022-11-15T10:04:36;98701.63;;;14.59;100.00
46129;BME280;31860;45.186;5.790;2022-11-15T10:07:23;98698.97;;;14.61;100.00
46129;BME280;31860;45.186;5.790;2022-11-15T10:12:22;98695.38;;;14.65;100.00
46129;BME280;31860;45.186;5.790;2022-11-15T10:14:50;98700.59;;;14.66;100.00
46129;BME280;31860;45.186;5.790;2022-11-15T10:22:50;98682.03;;;14.71;100.00
46129;BME280;31860;45.186;5.790;2022-11-15T10:25:25;98683.78;;;14.72;100.00
46129;BME280;31860;45.186;5.790;2022-11-15T10:27:55;98675.00;;;14.73;100.00
46129;BME280;31860;45.186;5.790;2022-11-15T10:30:22;98669.72;;;14.74;100.00
46129;BME280;31860;45.186;5.790;2022-11-15T10:32:48;98669.69;;;14.76;100.00
46129;BME280;31860;45.186;5.790;2022-11-15T10:35:21;98670.50;;;14.78;100.00
46129;BME280;31860;45.186;5.790;2022-11-15T10:37:48;98659.13;;;14.77;100.00
46129;BME280;31860;45.186;5.790;2022-11-15T10:40:22;98651.19;;;14.79;100.00
46129;BME280;31860;45.186;5.790;2022-11-15T10:42:49;98649.41;;;14.79;100.00
46129;BME280;31860;45.186;5.790;2022-11-15T10:45:30;98646.75;;;14.81;100.00
46129;BME280;31860;45.186;5.790;2022-11-15T10:50:37;98634.47;;;14.81;100.00
46129;BME280;31860;45.186;5.790;2022-11-15T10:53:04;98636.19;;;14.82;100.00
46129;BME280;31860;45.186;5.790;2022-11-15T10:55:39;98641.44;;;14.82;100.00
46129;BME280;31860;45.186;5.790;2022-11-15T10:58:20;98637.00;;;14.84;100.00
46129;BME280;31860;45.186;5.790;2022-11-15T11:00:47;98628.25;;;14.84;100.00
46129;BME280;31860;45.186;5.790;2022-11-15T11:03:36;98629.94;;;14.86;100.00
46129;BME280;31860;45.186;5.790;2022-11-15T11:06:15;98608.91;;;14.86;100.00
46129;BME280;31860;45.186;5.790;2022-11-15T11:09:00;98602.78;;;14.86;100.00
46129;BME280;31860;45.186;5.790;2022-11-15T11:11:46;98615.03;;;14.87;100.00
46129;BME280;31860;45.186;5.790;2022-11-15T11:14:26;98606.22;;;14.88;100.00
46129;BME280;31860;45.186;5.790;2022-11-15T11:19:59;98594.81;;;14.89;100.00
46129;BME280;31860;45.186;5.790;2022-11-15T11:25:22;98592.09;;;14.92;100.00
46129;BME280;31860;45.186;5.790;2022-11-15T11:28:19;98581.53;;;14.93;100.00
46129;BME280;31860;45.186;5.790;2022-11-15T11:31:07;98577.16;;;14.94;100.00
46129;BME280;31860;45.186;5.790;2022-11-15T11:36:57;98570.13;;;14.94;100.00
46129;BME280;31860;45.186;5.790;2022-11-15T11:44:49;98552.44;;;14.99;100.00
46129;BME280;31860;45.186;5.790;2022-11-15T11:47:23;98540.13;;;15.01;100.00
46129;BME280;31860;45.186;5.790;2022-11-15T11:49:52;98526.97;;;15.01;100.00
46129;BME280;31860;45.186;5.790;2022-11-15T11:52:32;98516.41;;;15.03;100.00
46129;BME280;31860;45.186;5.790;2022-11-15T11:55:12;98509.38;;;15.03;100.00
46129;BME280;31860;45.186;5.790;2022-11-15T12:00:55;98495.34;;;15.04;100.00
46129;BME280;31860;45.186;5.790;2022-11-15T12:03:34;98497.97;;;15.04;100.00
46129;BME280;31860;45.186;5.790;2022-11-15T12:14:01;98487.25;;;15.10;100.00
46129;BME280;31860;45.186;5.790;2022-11-15T12:16:30;98482.78;;;15.12;100.00
46129;BME280;31860;45.186;5.790;2022-11-15T12:19:01;98475.72;;;15.14;100.00
46129;BME280;31860;45.186;5.790;2022-11-15T12:24:59;98472.16;;;15.17;100.00
46129;BME280;31860;45.186;5.790;2022-11-15T12:27:34;98468.66;;;15.16;100.00
46129;BME280;31860;45.186;5.790;2022-11-15T12:30:08;98468.59;;;15.18;100.00
46129;BME280;31860;45.186;5.790;2022-11-15T12:32:37;98461.56;;;15.18;100.00
46129;BME280;31860;45.186;5.790;2022-11-15T12:35:20;98450.09;;;15.21;100.00
46129;BME280;31860;45.186;5.790;2022-11-15T12:37:49;98452.69;;;15.23;100.00
46129;BME280;31860;45.186;5.790;2022-11-15T12:40:19;98446.50;;;15.23;100.00
46129;BME280;31860;45.186;5.790;2022-11-15T12:45:42;98433.25;;;15.27;100.00
46129;BME280;31860;45.186;5.790;2022-11-15T13:14:47;98396.06;;;15.37;100.00
46129;BME280;31860;45.186;5.790;2022-11-15T13:19:47;98377.59;;;15.39;100.00
46129;BME280;31860;45.186;5.790;2022-11-15T13:22:13;98371.44;;;15.40;100.00
46129;BME280;31860;45.186;5.790;2022-11-15T13:24:58;98363.59;;;15.38;100.00
46129;BME280;31860;45.186;5.790;2022-11-15T13:27:25;98362.78;;;15.36;100.00
46129;BME280;31860;45.186;5.790;2022-11-15T13:29:52;98362.75;;;15.38;100.00
46129;BME280;31860;45.186;5.790;2022-11-15T13:32:18;98353.91;;;15.39;100.00
46129;BME280;31860;45.186;5.790;2022-11-15T13:34:46;98338.13;;;15.39;100.00
46129;BME280;31860;45.186;5.790;2022-11-15T13:39:47;98334.59;;;15.40;100.00
46129;BME280;31860;45.186;5.790;2022-11-15T13:42:17;98325.84;;;15.39;100.00
46129;BME280;31860;45.186;5.790;2022-11-15T13:45:00;98326.69;;;15.41;100.00
46129;BME280;31860;45.186;5.790;2022-11-15T13:47:27;98328.41;;;15.41;100.00
46129;BME280;31860;45.186;5.790;2022-11-15T13:49:53;98318.78;;;15.41;100.00
46129;BME280;31860;45.186;5.790;2022-11-15T13:52:19;98318.78;;;15.41;100.00
46129;BME280;31860;45.186;5.790;2022-11-15T13:54:59;98310.00;;;15.41;100.00
46129;BME280;31860;45.186;5.790;2022-11-15T14:00:30;98310.91;;;15.41;100.00
46129;BME280;31860;45.186;5.790;2022-11-15T14:02:53;98306.50;;;15.42;100.00
46129;BME280;31860;45.186;5.790;2022-11-15T14:05:22;98290.75;;;15.40;100.00
46129;BME280;31860;45.186;5.790;2022-11-15T14:08:13;98289.78;;;15.43;100.00
46129;BME280;31860;45.186;5.790;2022-11-15T14:10:46;98286.31;;;15.42;100.00
46129;BME280;31860;45.186;5.790;2022-11-15T14:13:31;98278.38;;;15.44;100.00
46129;BME280;31860;45.186;5.790;2022-11-15T14:16:13;98286.25;;;15.44;100.00
46129;BME280;31860;45.186;5.790;2022-11-15T14:18:48;98285.34;;;15.45;100.00
46129;BME280;31860;45.186;5.790;2022-11-15T14:21:14;98281.00;;;15.44;100.00
46129;BME280;31860;45.186;5.790;2022-11-15T14:23:40;98283.56;;;15.45;100.00
46129;BME280;31860;45.186;5.790;2022-11-15T14:26:05;98275.66;;;15.45;100.00
46129;BME280;31860;45.186;5.790;2022-11-15T14:28:32;98280.00;;;15.46;100.00
46129;BME280;31860;45.186;5.790;2022-11-15T14:31:06;98273.97;;;15.44;100.00
46129;BME280;31860;45.186;5.790;2022-11-15T14:33:36;98269.53;;;15.45;100.00
46129;BME280;31860;45.186;5.790;2022-11-15T14:36:12;98268.66;;;15.46;100.00
46129;BME280;31860;45.186;5.790;2022-11-15T14:38:38;98273.91;;;15.46;100.00
46129;BME280;31860;45.186;5.790;2022-11-15T14:41:04;98260.75;;;15.46;100.00
46129;BME280;31860;45.186;5.790;2022-11-15T14:43:31;98259.81;;;15.47;100.00
46129;BME280;31860;45.186;5.790;2022-11-15T14:45:56;98258.13;;;15.46;100.00
46129;BME280;31860;45.186;5.790;2022-11-15T14:48:22;98256.31;;;15.46;100.00
46129;BME280;31860;45.186;5.790;2022-11-15T14:50:48;98254.50;;;15.48;100.00
46129;BME280;31860;45.186;5.790;2022-11-15T14:53:15;98262.44;;;15.47;100.00
46129;BME280;31860;45.186;5.790;2022-11-15T14:55:41;98265.97;;;15.47;100.00
46129;BME280;31860;45.186;5.790;2022-11-15T14:58:07;98253.69;;;15.46;100.00
46129;BME280;31860;45.186;5.790;2022-11-15T15:00:35;98252.84;;;15.46;100.00